createdAt,value
2023-05-05T00:01:53.152Z,5.07
2023-05-05T00:04:22.564Z,5.15
2023-05-05T00:06:52.353Z,5.53
2023-05-05T00:09:18.961Z,5.45
2023-05-05T00:11:45.751Z,5.00
2023-05-05T00:14:12.366Z,5.32
2023-05-05T00:16:39.005Z,5.55
2023-05-05T00:19:06.608Z,5.13
2023-05-05T00:21:33.201Z,5.15
2023-05-05T00:24:00.007Z,5.35
2023-05-05T00:26:26.719Z,5.50
2023-05-05T00:28:53.409Z,5.20
2023-05-05T00:31:19.980Z,5.30
2023-05-05T00:33:46.638Z,5.40
2023-05-05T00:36:14.626Z,5.43
2023-05-05T00:38:41.241Z,5.13
2023-05-05T00:41:07.961Z,5.00
2023-05-05T00:43:34.500Z,4.82
2023-05-05T00:46:19.116Z,4.78
2023-05-05T00:48:45.813Z,5.03
2023-05-05T00:51:14.152Z,5.50
2023-05-05T00:53:43.026Z,5.10
2023-05-05T00:56:09.677Z,5.53
2023-05-05T00:58:36.926Z,5.53
2023-05-05T01:01:03.568Z,5.80
2023-05-05T01:03:30.319Z,5.85
2023-05-05T01:06:15.251Z,5.95
2023-05-05T01:09:06.422Z,5.30
2023-05-05T01:11:46.041Z,6.22
2023-05-05T01:14:17.016Z,5.38
2023-05-05T01:17:00.164Z,5.75
2023-05-05T01:19:59.040Z,5.85
2023-05-05T01:22:33.204Z,5.90
2023-05-05T01:25:34.015Z,5.97
2023-05-05T01:28:35.717Z,6.07
2023-05-05T01:31:17.770Z,5.90
2023-05-05T01:33:49.459Z,5.40
2023-05-05T01:36:23.349Z,6.03
2023-05-05T01:38:59.053Z,5.18
2023-05-05T01:41:31.938Z,6.00
2023-05-05T01:44:01.115Z,5.80
2023-05-05T01:46:28.226Z,6.00
2023-05-05T01:48:57.015Z,6.20
2023-05-05T01:51:25.092Z,6.25
2023-05-05T01:53:59.048Z,5.47
2023-05-05T01:56:27.437Z,5.95
2023-05-05T01:58:55.837Z,6.43
2023-05-05T02:01:27.738Z,6.10
2023-05-05T02:03:58.738Z,5.75
2023-05-05T02:06:28.687Z,5.80
2023-05-05T02:08:58.312Z,6.40
2023-05-05T02:11:26.690Z,6.30
2023-05-05T02:13:55.515Z,6.50
2023-05-05T02:16:23.421Z,6.25
2023-05-05T02:18:58.393Z,6.43
2023-05-05T02:21:25.151Z,6.13
2023-05-05T02:23:52.790Z,7.10
2023-05-05T02:26:22.926Z,7.43
2023-05-05T02:28:54.773Z,7.00
2023-05-05T02:31:24.314Z,6.82
2023-05-05T02:33:52.164Z,6.50
2023-05-05T02:36:22.083Z,7.20
2023-05-05T02:38:54.323Z,7.43
2023-05-05T02:41:22.543Z,6.43
2023-05-05T02:43:51.014Z,6.30
2023-05-05T02:46:17.942Z,6.78
2023-05-05T02:48:45.887Z,6.85
2023-05-05T02:51:12.632Z,6.15
2023-05-05T02:53:39.747Z,6.85
2023-05-05T02:56:48.736Z,6.53
2023-05-05T02:59:30.038Z,6.55
2023-05-05T03:02:14.513Z,6.45
2023-05-05T03:04:52.284Z,6.43
2023-05-05T03:07:47.136Z,6.90
2023-05-05T03:10:18.354Z,6.10
2023-05-05T03:12:58.448Z,6.15
2023-05-05T03:15:46.483Z,6.93
2023-05-05T03:18:15.534Z,6.00
2023-05-05T03:20:42.780Z,7.20
2023-05-05T03:23:10.075Z,6.72
2023-05-05T03:25:47.319Z,6.40
2023-05-05T03:28:14.914Z,6.38
2023-05-05T03:30:42.223Z,6.53
2023-05-05T03:33:11.237Z,6.15
2023-05-05T03:35:38.035Z,6.50
2023-05-05T03:38:04.649Z,6.55
2023-05-05T03:40:43.085Z,5.95
2023-05-05T03:43:10.606Z,6.50
2023-05-05T03:45:37.540Z,6.47
2023-05-05T03:48:04.646Z,6.75
2023-05-05T03:50:31.299Z,6.53
2023-05-05T03:52:57.982Z,6.93
2023-05-05T03:55:24.789Z,6.60
2023-05-05T03:57:51.443Z,7.13
2023-05-05T04:00:18.514Z,6.32
2023-05-05T04:02:45.484Z,6.78
2023-05-05T04:05:12.213Z,6.50
2023-05-05T04:07:38.860Z,6.72
2023-05-05T04:10:06.763Z,6.95
2023-05-05T04:12:33.696Z,6.80
2023-05-05T04:15:01.002Z,6.40
2023-05-05T04:17:27.634Z,6.75
2023-05-05T04:19:54.217Z,6.97
2023-05-05T04:22:20.959Z,7.78
2023-05-05T04:24:47.665Z,6.68
2023-05-05T04:27:14.248Z,6.82
2023-05-05T04:29:43.382Z,6.00
2023-05-05T04:32:09.962Z,6.30
2023-05-05T04:34:36.960Z,6.47
2023-05-05T04:37:03.622Z,6.45
2023-05-05T04:39:30.368Z,6.07
2023-05-05T04:41:57.342Z,6.68
2023-05-05T04:44:23.994Z,6.13
2023-05-05T04:46:50.723Z,6.13
2023-05-05T04:49:17.426Z,6.55
2023-05-05T04:51:44.049Z,6.38
2023-05-05T04:54:10.755Z,6.20
2023-05-05T04:56:37.501Z,5.97
2023-05-05T04:59:04.088Z,6.43
2023-05-05T05:01:31.671Z,6.57
2023-05-05T05:03:58.708Z,6.82
2023-05-05T05:06:25.759Z,6.55
2023-05-05T05:08:53.360Z,7.35
2023-05-05T05:11:20.194Z,6.72
2023-05-05T05:13:47.025Z,6.50
2023-05-05T05:16:14.031Z,7.15
2023-05-05T05:18:40.967Z,6.68
2023-05-05T05:21:08.039Z,6.80
2023-05-05T05:23:34.764Z,6.70
2023-05-05T05:26:01.539Z,6.70
2023-05-05T05:28:28.403Z,7.13
2023-05-05T05:30:55.112Z,6.85
2023-05-05T05:33:21.821Z,7.30
2023-05-05T05:35:48.433Z,6.93
2023-05-05T05:38:15.115Z,7.35
2023-05-05T05:40:42.087Z,6.55
2023-05-05T05:43:08.723Z,7.47
2023-05-05T05:45:35.530Z,7.43
2023-05-05T05:48:02.221Z,7.10
2023-05-05T05:50:28.924Z,6.75
2023-05-05T05:52:55.823Z,6.60
2023-05-05T05:55:22.451Z,6.47
2023-05-05T05:57:49.073Z,6.60
2023-05-05T06:00:16.016Z,6.55
2023-05-05T06:02:42.829Z,6.30
2023-05-05T06:05:10.326Z,6.22
2023-05-05T06:07:36.948Z,5.97
2023-05-05T06:10:18.408Z,5.88
2023-05-05T06:12:45.575Z,5.97
2023-05-05T06:15:12.125Z,6.30
2023-05-05T06:17:38.969Z,5.63
2023-05-05T06:20:06.479Z,6.30
2023-05-05T06:22:33.353Z,5.80
2023-05-05T06:24:59.956Z,6.22
2023-05-05T06:27:26.535Z,5.70
2023-05-05T06:29:53.100Z,5.93
2023-05-05T06:32:20.334Z,6.45
2023-05-05T06:34:48.193Z,6.20
2023-05-05T06:37:14.956Z,6.18
2023-05-05T06:39:41.674Z,6.63
2023-05-05T06:42:08.284Z,7.10
2023-05-05T06:44:36.338Z,6.72
2023-05-05T06:47:03.783Z,7.50
2023-05-05T06:49:30.477Z,7.15
2023-05-05T06:51:57.083Z,7.30
2023-05-05T06:54:23.692Z,6.93
2023-05-05T06:56:50.552Z,7.35
2023-05-05T06:59:17.225Z,7.53
2023-05-05T07:01:43.791Z,7.32
2023-05-05T07:04:11.232Z,7.32
2023-05-05T07:06:37.948Z,6.97
2023-05-05T07:09:04.549Z,7.30
2023-05-05T07:11:31.178Z,7.18
2023-05-05T07:13:57.768Z,6.38
2023-05-05T07:16:27.053Z,7.22
2023-05-05T07:18:53.830Z,7.25
2023-05-05T07:21:20.495Z,7.38
2023-05-05T07:23:47.747Z,7.00
2023-05-05T07:26:15.177Z,6.85
2023-05-05T07:28:43.030Z,6.50
2023-05-05T07:31:09.776Z,6.32
2023-05-05T07:33:39.192Z,6.60
2023-05-05T07:36:06.116Z,6.40
2023-05-05T07:38:32.896Z,6.07
2023-05-05T07:40:59.525Z,6.18
2023-05-05T07:43:26.346Z,6.22
2023-05-05T07:45:53.000Z,6.18
2023-05-05T07:48:19.622Z,5.65
2023-05-05T07:50:46.202Z,5.68
2023-05-05T07:53:14.952Z,6.07
2023-05-05T07:55:42.247Z,6.03
2023-05-05T07:58:12.036Z,6.00
2023-05-05T08:00:39.365Z,6.00
2023-05-05T08:03:07.199Z,6.10
2023-05-05T08:05:35.906Z,6.05
2023-05-05T08:08:03.633Z,5.85
2023-05-05T08:10:30.502Z,5.95
2023-05-05T08:12:57.228Z,5.60
2023-05-05T08:15:23.880Z,5.53
2023-05-05T08:17:53.129Z,5.45
2023-05-05T08:20:20.993Z,5.28
2023-05-05T08:22:48.000Z,5.07
2023-05-05T08:25:17.329Z,5.10
2023-05-05T08:27:44.729Z,5.25
2023-05-05T08:30:11.864Z,5.68
2023-05-05T08:32:38.830Z,5.35
2023-05-05T08:35:06.574Z,5.13
2023-05-05T08:37:33.597Z,5.65
2023-05-05T08:40:00.405Z,5.10
2023-05-05T08:42:37.194Z,5.40
2023-05-05T08:45:04.771Z,5.28
2023-05-05T08:47:32.267Z,5.55
2023-05-05T08:50:00.167Z,5.30
2023-05-05T08:52:32.625Z,5.15
2023-05-05T08:55:24.013Z,5.20
2023-05-05T08:57:57.027Z,4.72
2023-05-05T09:00:24.520Z,5.40
2023-05-05T09:02:52.424Z,5.15
2023-05-05T09:05:19.161Z,5.15
2023-05-05T09:07:47.120Z,5.30
2023-05-05T09:10:13.840Z,4.90
2023-05-05T09:12:41.146Z,5.68
2023-05-05T09:15:12.561Z,5.10
2023-05-05T09:17:40.070Z,5.20
2023-05-05T09:20:11.799Z,5.30
2023-05-05T09:22:43.335Z,5.05
2023-05-05T09:25:14.454Z,5.25
2023-05-05T09:27:46.540Z,4.63
2023-05-05T09:30:23.106Z,5.03
2023-05-05T09:32:54.587Z,5.05
2023-05-05T09:35:22.764Z,5.25
2023-05-05T09:37:49.662Z,4.90
2023-05-05T09:40:18.898Z,4.90
2023-05-05T09:42:46.134Z,4.90
2023-05-05T09:45:18.987Z,4.90
2023-05-05T09:47:47.062Z,4.85
2023-05-05T09:50:16.017Z,4.72
2023-05-05T09:52:43.308Z,4.53
2023-05-05T09:55:19.056Z,4.10
2023-05-05T09:57:47.368Z,4.43
2023-05-05T10:00:14.527Z,4.20
2023-05-05T10:02:43.987Z,3.90
2023-05-05T10:05:18.620Z,4.07
2023-05-05T10:07:47.818Z,3.53
2023-05-05T10:10:16.986Z,3.40
2023-05-05T10:12:45.863Z,3.10
2023-05-05T10:15:15.088Z,2.83
2023-05-05T10:20:19.141Z,2.95
2023-05-05T10:22:54.496Z,3.13
2023-05-05T10:25:34.567Z,2.80
2023-05-05T10:28:04.222Z,2.15
2023-05-05T10:30:34.656Z,2.33
2023-05-05T10:33:30.088Z,2.22
2023-05-05T10:36:05.190Z,2.50
2023-05-05T10:38:32.608Z,2.67
2023-05-05T10:41:01.073Z,2.03
2023-05-05T10:43:31.946Z,2.00
2023-05-05T10:45:59.601Z,2.10
2023-05-05T10:49:13.539Z,2.00
2023-05-05T10:52:17.378Z,1.80
2023-05-05T10:54:49.472Z,2.08
2023-05-05T10:57:21.623Z,2.03
2023-05-05T10:59:48.179Z,1.90
2023-05-05T11:02:19.573Z,1.90
2023-05-05T11:05:14.975Z,1.85
2023-05-05T11:07:42.786Z,1.73
2023-05-05T11:10:12.000Z,1.20
2023-05-05T11:13:02.383Z,0.90
2023-05-05T11:15:29.218Z,1.17
2023-05-05T11:18:03.297Z,1.52
2023-05-05T11:20:39.588Z,1.45
2023-05-05T11:23:06.865Z,1.52
2023-05-05T11:25:44.474Z,1.70
2023-05-05T11:28:16.779Z,1.60
2023-05-05T11:30:57.864Z,1.33
2023-05-05T11:33:39.028Z,1.50
2023-05-05T11:36:10.168Z,1.92
2023-05-05T11:38:55.737Z,2.95
2023-05-05T11:41:34.381Z,1.27
2023-05-05T11:44:17.119Z,1.20
2023-05-05T11:47:07.058Z,6.25
2023-05-05T11:49:35.816Z,2.65
2023-05-05T11:52:05.426Z,1.00
2023-05-05T11:54:35.889Z,1.10
2023-05-05T11:57:08.214Z,1.20
2023-05-05T11:59:37.484Z,1.40
2023-05-05T12:02:04.678Z,1.48
2023-05-05T12:04:31.788Z,1.20
2023-05-05T12:07:01.643Z,1.25
2023-05-05T12:09:28.436Z,1.08
2023-05-05T12:11:56.416Z,0.85
2023-05-05T12:14:24.540Z,0.60
2023-05-05T12:17:09.715Z,0.60
2023-05-05T12:19:36.550Z,0.60
2023-05-05T12:22:05.114Z,0.65
2023-05-05T12:24:31.798Z,0.73
2023-05-05T12:27:08.696Z,0.70
2023-05-05T12:29:35.370Z,0.60
2023-05-05T12:32:02.143Z,0.55
2023-05-05T12:34:29.002Z,0.70
2023-05-05T12:36:58.858Z,0.60
2023-05-05T12:39:37.513Z,0.60
2023-05-05T12:42:04.887Z,0.70
2023-05-05T12:44:36.173Z,0.60
2023-05-05T12:47:02.908Z,0.55
2023-05-05T12:49:29.806Z,0.57
2023-05-05T12:51:57.184Z,0.57
2023-05-05T12:54:24.964Z,0.55
2023-05-05T12:56:51.632Z,0.60
2023-05-05T12:59:20.978Z,0.55
2023-05-05T13:01:59.315Z,0.63
2023-05-05T13:04:29.369Z,0.52
2023-05-05T13:07:13.460Z,0.77
2023-05-05T13:09:40.600Z,0.70
2023-05-05T13:12:16.932Z,0.60
2023-05-05T13:14:44.121Z,0.60
2023-05-05T13:17:12.006Z,0.80
2023-05-05T13:19:47.991Z,0.60
2023-05-05T13:22:15.391Z,0.65
2023-05-05T13:24:50.840Z,0.80
2023-05-05T13:27:19.749Z,0.60
2023-05-05T13:29:46.647Z,0.60
2023-05-05T13:32:13.313Z,0.80
2023-05-05T13:34:40.055Z,0.70
2023-05-05T13:37:06.785Z,0.70
2023-05-05T13:39:33.685Z,0.70
2023-05-05T13:42:00.370Z,0.75
2023-05-05T13:44:27.025Z,0.90
2023-05-05T13:46:53.957Z,0.82
2023-05-05T13:49:21.089Z,0.70
2023-05-05T13:51:47.806Z,0.85
2023-05-05T13:54:14.475Z,0.60
2023-05-05T13:56:44.049Z,0.70
2023-05-05T13:59:10.704Z,0.68
2023-05-05T14:01:37.722Z,0.65
2023-05-05T14:04:05.721Z,0.70
2023-05-05T14:06:33.470Z,0.68
2023-05-05T14:09:00.082Z,0.57
2023-05-05T14:11:26.794Z,0.65
2023-05-05T14:13:53.510Z,0.70
2023-05-05T14:16:20.233Z,0.57
2023-05-05T14:18:46.961Z,0.52
2023-05-05T14:21:16.756Z,0.50
2023-05-05T14:23:43.342Z,0.60
2023-05-05T14:26:10.133Z,0.47
2023-05-05T14:28:36.713Z,0.57
2023-05-05T14:31:03.492Z,0.50
2023-05-05T14:33:33.114Z,0.50
2023-05-05T14:35:59.965Z,0.40
2023-05-05T14:38:26.556Z,0.70
2023-05-05T14:40:53.273Z,0.60
2023-05-05T14:43:20.751Z,0.60
2023-05-05T14:45:47.410Z,0.50
2023-05-05T14:48:14.061Z,0.70
2023-05-05T14:50:42.372Z,0.70
2023-05-05T14:53:08.981Z,0.60
2023-05-05T14:55:35.771Z,0.50
2023-05-05T14:58:02.314Z,0.80
2023-05-05T15:00:28.998Z,0.80
2023-05-05T15:02:55.688Z,0.80
2023-05-05T15:05:22.332Z,0.90
2023-05-05T15:07:48.989Z,1.00
2023-05-05T15:10:15.736Z,0.82
2023-05-05T15:12:43.041Z,0.82
2023-05-05T15:15:10.205Z,0.82
2023-05-05T15:17:38.632Z,0.80
2023-05-05T15:20:06.895Z,0.70
2023-05-05T15:22:33.709Z,0.93
2023-05-05T15:25:00.371Z,0.80
2023-05-05T15:27:27.147Z,1.05
2023-05-05T15:29:54.372Z,0.90
2023-05-05T15:32:21.210Z,0.90
2023-05-05T15:34:50.233Z,0.88
2023-05-05T15:37:17.195Z,0.80
2023-05-05T15:39:44.060Z,0.70
2023-05-05T15:42:11.041Z,0.60
2023-05-05T15:44:37.750Z,0.80
2023-05-05T15:47:04.957Z,1.00
2023-05-05T15:49:31.740Z,0.90
2023-05-05T15:51:58.771Z,0.70
2023-05-05T15:54:26.505Z,0.60
2023-05-05T15:56:53.228Z,0.75
2023-05-05T15:59:19.898Z,0.65
2023-05-05T16:01:47.166Z,1.00
2023-05-05T16:04:13.977Z,0.90
2023-05-05T16:06:40.756Z,0.73
2023-05-05T16:09:07.416Z,0.70
2023-05-05T16:11:34.162Z,0.80
2023-05-05T16:14:00.989Z,0.93
2023-05-05T16:16:27.603Z,0.80
2023-05-05T16:18:54.469Z,1.05
2023-05-05T16:21:21.205Z,0.80
2023-05-05T16:23:47.859Z,0.90
2023-05-05T16:26:14.448Z,0.85
2023-05-05T16:28:41.090Z,1.00
2023-05-05T16:31:10.473Z,0.85
2023-05-05T16:33:40.768Z,0.82
2023-05-05T16:36:13.958Z,0.82
2023-05-05T16:38:41.279Z,0.70
2023-05-05T16:41:08.126Z,0.80
2023-05-05T16:43:37.004Z,1.00
2023-05-05T16:46:03.998Z,0.95
2023-05-05T16:48:30.743Z,0.80
2023-05-05T16:50:58.000Z,1.00
2023-05-05T16:53:25.321Z,0.90
2023-05-05T16:55:53.276Z,0.95
2023-05-05T16:58:21.203Z,1.10
2023-05-05T17:00:49.140Z,1.00
2023-05-05T17:03:16.945Z,1.20
2023-05-05T17:05:45.287Z,1.10
2023-05-05T17:08:14.313Z,1.60
2023-05-05T17:10:41.815Z,1.45
2023-05-05T17:13:12.842Z,2.30
2023-05-05T17:15:40.447Z,2.30
2023-05-05T17:18:08.221Z,2.25
2023-05-05T17:20:36.186Z,2.10
2023-05-05T17:23:03.204Z,1.90
2023-05-05T17:25:29.836Z,1.70
2023-05-05T17:27:57.594Z,1.45
2023-05-05T17:30:24.462Z,1.33
2023-05-05T17:32:51.231Z,1.52
2023-05-05T17:35:17.941Z,1.40
2023-05-05T17:37:45.052Z,1.45
2023-05-05T17:40:15.318Z,1.67
2023-05-05T17:42:41.931Z,1.42
2023-05-05T17:45:09.498Z,1.60
2023-05-05T17:47:36.415Z,1.75
2023-05-05T17:50:03.507Z,1.33
2023-05-05T17:52:30.252Z,1.50
2023-05-05T17:54:57.096Z,1.52
2023-05-05T17:57:23.947Z,1.75
2023-05-05T17:59:51.843Z,1.70
2023-05-05T18:02:19.573Z,1.50
2023-05-05T18:04:46.481Z,1.73
2023-05-05T18:07:28.351Z,1.50
2023-05-05T18:09:55.146Z,1.60
2023-05-05T18:12:23.782Z,1.60
2023-05-05T18:14:50.562Z,1.73
2023-05-05T18:17:17.310Z,1.60
2023-05-05T18:19:46.650Z,1.77
2023-05-05T18:22:15.195Z,1.83
2023-05-05T18:24:42.780Z,1.83
2023-05-05T18:27:09.508Z,2.20
2023-05-05T18:29:36.412Z,2.00
2023-05-05T18:32:05.077Z,2.10
2023-05-05T18:34:33.084Z,1.70
2023-05-05T18:37:02.739Z,1.60
2023-05-05T18:39:30.263Z,1.85
2023-05-05T18:41:57.134Z,1.90
2023-05-05T18:44:23.884Z,1.70
2023-05-05T18:46:51.750Z,2.03
2023-05-05T18:49:18.393Z,2.10
2023-05-05T18:51:45.153Z,1.90
2023-05-05T18:54:11.854Z,1.90
2023-05-05T18:56:38.554Z,2.00
2023-05-05T18:59:05.370Z,2.28
2023-05-05T19:01:33.471Z,2.33
2023-05-05T19:04:01.293Z,2.45
2023-05-05T19:06:30.352Z,3.17
2023-05-05T19:09:01.517Z,3.40
2023-05-05T19:11:29.381Z,3.03
2023-05-05T19:13:56.273Z,3.08
2023-05-05T19:16:23.259Z,2.50
2023-05-05T19:18:49.878Z,2.00
2023-05-05T19:21:16.670Z,2.17
2023-05-05T19:23:45.748Z,2.35
2023-05-05T19:26:12.764Z,2.35
2023-05-05T19:28:45.165Z,2.25
2023-05-05T19:31:11.871Z,1.90
2023-05-05T19:33:42.207Z,2.00
2023-05-05T19:36:08.953Z,2.00
2023-05-05T19:38:36.493Z,2.00
2023-05-05T19:41:03.307Z,2.00
2023-05-05T19:43:29.962Z,2.17
2023-05-05T19:45:56.632Z,2.35
2023-05-05T19:48:23.394Z,2.28
2023-05-05T19:50:50.909Z,2.60
2023-05-05T19:53:20.716Z,2.67
2023-05-05T19:55:47.955Z,2.80
2023-05-05T19:58:14.786Z,2.55
2023-05-05T20:00:41.701Z,2.80
2023-05-05T20:03:08.965Z,2.55
2023-05-05T20:05:36.833Z,2.60
2023-05-05T20:08:06.138Z,2.60
2023-05-05T20:10:33.105Z,3.45
2023-05-05T20:12:59.883Z,2.55
2023-05-05T20:15:27.742Z,2.70
2023-05-05T20:17:55.140Z,2.58
2023-05-05T20:20:22.541Z,2.28
2023-05-05T20:22:49.596Z,1.88
2023-05-05T20:25:16.750Z,2.10
2023-05-05T20:27:44.044Z,2.50
2023-05-05T20:30:12.030Z,2.17
2023-05-05T20:32:39.067Z,2.90
2023-05-05T20:35:06.239Z,2.47
2023-05-05T20:37:33.108Z,2.55
2023-05-05T20:39:59.842Z,2.65
2023-05-05T20:42:27.516Z,2.05
2023-05-05T20:44:54.160Z,2.22
2023-05-05T20:47:20.983Z,2.40
2023-05-05T20:49:47.639Z,1.95
2023-05-05T20:52:14.336Z,1.88
2023-05-05T20:54:41.123Z,2.65
2023-05-05T20:57:07.687Z,2.58
2023-05-05T20:59:34.427Z,3.50
2023-05-05T21:02:01.078Z,2.97
2023-05-05T21:04:27.849Z,3.70
2023-05-05T21:06:54.579Z,3.60
2023-05-05T21:09:23.956Z,3.53
2023-05-05T21:11:50.674Z,3.08
2023-05-05T21:14:17.337Z,2.90
2023-05-05T21:16:43.950Z,2.70
2023-05-05T21:19:10.644Z,2.10
2023-05-05T21:21:37.217Z,2.05
2023-05-05T21:24:05.514Z,1.80
2023-05-05T21:26:33.752Z,1.85
2023-05-05T21:29:00.325Z,1.90
2023-05-05T21:31:26.942Z,1.90
2023-05-05T21:33:54.191Z,1.63
2023-05-05T21:36:21.244Z,1.83
2023-05-05T21:38:47.903Z,1.80
2023-05-05T21:41:14.564Z,1.85
2023-05-05T21:43:41.249Z,1.38
2023-05-05T21:46:08.449Z,1.50
2023-05-05T21:48:35.286Z,1.58
2023-05-05T21:51:02.021Z,1.40
2023-05-05T21:53:32.106Z,1.27
2023-05-05T21:55:58.926Z,1.40
2023-05-05T21:58:25.479Z,1.30
2023-05-05T22:00:52.540Z,1.23
2023-05-05T22:03:19.280Z,1.20
2023-05-05T22:05:46.080Z,1.25
2023-05-05T22:08:12.722Z,1.10
2023-05-05T22:10:39.524Z,1.33
2023-05-05T22:13:06.416Z,1.35
2023-05-05T22:15:45.382Z,1.10
2023-05-05T22:18:13.617Z,1.17
2023-05-05T22:20:40.600Z,1.10
2023-05-05T22:23:07.372Z,1.10
2023-05-05T22:25:34.028Z,1.17
2023-05-05T22:28:00.735Z,1.20
2023-05-05T22:30:27.348Z,1.20
2023-05-05T22:32:54.870Z,1.08
2023-05-05T22:35:21.510Z,1.30
2023-05-05T22:37:48.108Z,1.20
2023-05-05T22:40:14.778Z,1.10
2023-05-05T22:42:41.309Z,1.38
2023-05-05T22:45:09.652Z,1.30
2023-05-05T22:47:36.579Z,1.40
2023-05-05T22:50:03.403Z,1.30
2023-05-05T22:52:30.111Z,1.33
2023-05-05T22:54:56.706Z,1.30
2023-05-05T22:57:23.468Z,1.08
2023-05-05T22:59:50.516Z,1.20
2023-05-05T23:02:17.068Z,1.23
2023-05-05T23:04:44.818Z,1.30
2023-05-05T23:07:12.489Z,1.10
2023-05-05T23:09:39.240Z,1.20
2023-05-05T23:12:06.035Z,1.10
2023-05-05T23:14:32.690Z,1.13
2023-05-05T23:16:59.570Z,1.20
2023-05-05T23:19:26.465Z,1.10
2023-05-05T23:21:53.776Z,1.30
2023-05-05T23:24:21.393Z,1.00
2023-05-05T23:26:48.070Z,1.17
2023-05-05T23:29:15.014Z,1.42
2023-05-05T23:31:41.593Z,1.30
2023-05-05T23:34:11.066Z,1.73
2023-05-05T23:36:37.754Z,1.50
2023-05-05T23:39:04.647Z,1.50
2023-05-05T23:41:31.328Z,1.27
2023-05-05T23:43:58.004Z,1.58
2023-05-05T23:46:24.770Z,1.58
2023-05-05T23:48:51.368Z,1.58
2023-05-05T23:51:18.069Z,1.40
2023-05-05T23:53:44.621Z,1.63
2023-05-05T23:56:11.712Z,1.40
2023-05-05T23:58:38.458Z,1.55
